sensor_id;sensor_type;location;lat;lon;timestamp;temperature;humidity
10057;DHT22;5068;51.286;7.518;2023-12-20T00:01:19;6.90;71.30
10057;DHT22;5068;51.286;7.518;2023-12-20T00:02:51;7.00;71.40
10057;DHT22;5068;51.286;7.518;2023-12-20T00:04:24;7.00;71.50
10057;DHT22;5068;51.286;7.518;2023-12-20T00:05:57;7.00;71.50
10057;DHT22;5068;51.286;7.518;2023-12-20T00:07:30;7.00;71.50
10057;DHT22;5068;51.286;7.518;2023-12-20T00:09:04;7.00;71.50
10057;DHT22;5068;51.286;7.518;2023-12-20T00:10:37;7.00;71.50
10057;DHT22;5068;51.286;7.518;2023-12-20T00:12:11;7.00;71.60
10057;DHT22;5068;51.286;7.518;2023-12-20T00:13:44;7.00;71.50
10057;DHT22;5068;51.286;7.518;2023-12-20T00:15:20;7.00;71.60
10057;DHT22;5068;51.286;7.518;2023-12-20T00:16:53;7.00;71.60
10057;DHT22;5068;51.286;7.518;2023-12-20T00:18:27;7.10;71.70
10057;DHT22;5068;51.286;7.518;2023-12-20T00:19:59;7.00;71.70
10057;DHT22;5068;51.286;7.518;2023-12-20T00:21:32;7.00;71.70
10057;DHT22;5068;51.286;7.518;2023-12-20T00:23:05;7.00;71.70
10057;DHT22;5068;51.286;7.518;2023-12-20T00:24:40;7.00;71.70
10057;DHT22;5068;51.286;7.518;2023-12-20T00:26:13;7.00;71.80
10057;DHT22;5068;51.286;7.518;2023-12-20T00:27:46;7.00;71.70
10057;DHT22;5068;51.286;7.518;2023-12-20T00:29:19;7.00;71.70
10057;DHT22;5068;51.286;7.518;2023-12-20T00:30:52;7.00;71.80
10057;DHT22;5068;51.286;7.518;2023-12-20T00:32:25;7.00;71.80
10057;DHT22;5068;51.286;7.518;2023-12-20T00:33:58;7.00;71.80
10057;DHT22;5068;51.286;7.518;2023-12-20T00:35:31;7.00;71.80
10057;DHT22;5068;51.286;7.518;2023-12-20T00:37:04;7.00;72.50
10057;DHT22;5068;51.286;7.518;2023-12-20T00:38:37;7.00;71.80
10057;DHT22;5068;51.286;7.518;2023-12-20T00:40:11;7.00;71.70
10057;DHT22;5068;51.286;7.518;2023-12-20T00:41:44;7.00;71.70
10057;DHT22;5068;51.286;7.518;2023-12-20T00:43:16;7.00;71.80
10057;DHT22;5068;51.286;7.518;2023-12-20T00:44:50;7.00;71.50
10057;DHT22;5068;51.286;7.518;2023-12-20T00:46:23;7.00;71.50
10057;DHT22;5068;51.286;7.518;2023-12-20T00:47:55;7.00;71.50
10057;DHT22;5068;51.286;7.518;2023-12-20T00:49:29;7.00;71.40
10057;DHT22;5068;51.286;7.518;2023-12-20T00:51:01;7.00;71.40
10057;DHT22;5068;51.286;7.518;2023-12-20T00:52:35;7.00;71.30
10057;DHT22;5068;51.286;7.518;2023-12-20T00:54:07;7.00;71.30
10057;DHT22;5068;51.286;7.518;2023-12-20T00:55:42;7.00;71.30
10057;DHT22;5068;51.286;7.518;2023-12-20T00:57:16;7.00;71.20
10057;DHT22;5068;51.286;7.518;2023-12-20T00:58:49;7.00;71.20
10057;DHT22;5068;51.286;7.518;2023-12-20T01:00:21;7.00;71.20
10057;DHT22;5068;51.286;7.518;2023-12-20T01:01:54;7.00;71.10
10057;DHT22;5068;51.286;7.518;2023-12-20T01:03:26;7.00;71.10
10057;DHT22;5068;51.286;7.518;2023-12-20T01:05:00;7.00;71.00
10057;DHT22;5068;51.286;7.518;2023-12-20T01:06:32;7.00;71.00
10057;DHT22;5068;51.286;7.518;2023-12-20T01:08:06;7.00;70.90
10057;DHT22;5068;51.286;7.518;2023-12-20T01:09:38;7.00;70.90
10057;DHT22;5068;51.286;7.518;2023-12-20T01:11:13;7.00;70.70
10057;DHT22;5068;51.286;7.518;2023-12-20T01:12:45;7.00;70.60
10057;DHT22;5068;51.286;7.518;2023-12-20T01:14:19;7.00;70.50
10057;DHT22;5068;51.286;7.518;2023-12-20T01:15:51;7.00;70.60
10057;DHT22;5068;51.286;7.518;2023-12-20T01:17:24;6.90;70.40
10057;DHT22;5068;51.286;7.518;2023-12-20T01:18:56;6.90;70.40
10057;DHT22;5068;51.286;7.518;2023-12-20T01:20:30;6.90;70.40
10057;DHT22;5068;51.286;7.518;2023-12-20T01:22:03;6.90;70.40
10057;DHT22;5068;51.286;7.518;2023-12-20T01:23:36;6.90;70.40
10057;DHT22;5068;51.286;7.518;2023-12-20T01:25:09;6.90;70.40
10057;DHT22;5068;51.286;7.518;2023-12-20T01:26:43;6.90;70.20
10057;DHT22;5068;51.286;7.518;2023-12-20T01:28:17;6.90;70.10
10057;DHT22;5068;51.286;7.518;2023-12-20T01:29:49;6.90;70.00
10057;DHT22;5068;51.286;7.518;2023-12-20T01:31:22;6.90;69.80
10057;DHT22;5068;51.286;7.518;2023-12-20T01:32:55;6.90;69.60
10057;DHT22;5068;51.286;7.518;2023-12-20T01:34:28;6.80;69.40
10057;DHT22;5068;51.286;7.518;2023-12-20T01:36:00;6.90;69.30
10057;DHT22;5068;51.286;7.518;2023-12-20T01:37:34;6.80;69.00
10057;DHT22;5068;51.286;7.518;2023-12-20T01:39:06;6.80;68.80
10057;DHT22;5068;51.286;7.518;2023-12-20T01:40:55;6.90;68.70
10057;DHT22;5068;51.286;7.518;2023-12-20T01:42:29;6.80;68.50
10057;DHT22;5068;51.286;7.518;2023-12-20T01:44:02;6.80;68.50
10057;DHT22;5068;51.286;7.518;2023-12-20T01:45:35;6.80;68.50
10057;DHT22;5068;51.286;7.518;2023-12-20T01:47:09;6.80;68.20
10057;DHT22;5068;51.286;7.518;2023-12-20T01:48:42;6.80;68.40
10057;DHT22;5068;51.286;7.518;2023-12-20T01:50:16;6.80;68.50
10057;DHT22;5068;51.286;7.518;2023-12-20T01:51:48;6.70;68.40
10057;DHT22;5068;51.286;7.518;2023-12-20T01:53:24;6.70;68.40
10057;DHT22;5068;51.286;7.518;2023-12-20T01:54:58;6.70;68.50
10057;DHT22;5068;51.286;7.518;2023-12-20T01:56:35;6.70;68.40
10057;DHT22;5068;51.286;7.518;2023-12-20T01:58:11;6.60;68.30
10057;DHT22;5068;51.286;7.518;2023-12-20T01:59:45;6.70;68.50
10057;DHT22;5068;51.286;7.518;2023-12-20T02:01:19;6.60;68.30
10057;DHT22;5068;51.286;7.518;2023-12-20T02:02:53;6.60;68.30
10057;DHT22;5068;51.286;7.518;2023-12-20T02:04:27;6.60;68.50
10057;DHT22;5068;51.286;7.518;2023-12-20T02:06:00;6.60;68.60
10057;DHT22;5068;51.286;7.518;2023-12-20T02:07:33;6.60;68.60
10057;DHT22;5068;51.286;7.518;2023-12-20T02:09:07;6.60;68.60
10057;DHT22;5068;51.286;7.518;2023-12-20T02:10:40;6.50;68.60
10057;DHT22;5068;51.286;7.518;2023-12-20T02:12:14;6.50;68.70
10057;DHT22;5068;51.286;7.518;2023-12-20T02:13:47;6.60;68.80
10057;DHT22;5068;51.286;7.518;2023-12-20T02:15:21;6.50;68.80
10057;DHT22;5068;51.286;7.518;2023-12-20T02:16:53;6.50;68.80
10057;DHT22;5068;51.286;7.518;2023-12-20T02:18:26;6.50;68.90
10057;DHT22;5068;51.286;7.518;2023-12-20T02:19:59;6.50;68.90
10057;DHT22;5068;51.286;7.518;2023-12-20T02:21:34;6.50;68.90
10057;DHT22;5068;51.286;7.518;2023-12-20T02:23:06;6.50;69.00
10057;DHT22;5068;51.286;7.518;2023-12-20T02:24:39;6.50;69.00
10057;DHT22;5068;51.286;7.518;2023-12-20T02:26:13;6.50;69.00
10057;DHT22;5068;51.286;7.518;2023-12-20T02:27:46;6.50;69.00
10057;DHT22;5068;51.286;7.518;2023-12-20T02:29:20;6.50;69.20
10057;DHT22;5068;51.286;7.518;2023-12-20T02:30:53;6.50;69.00
10057;DHT22;5068;51.286;7.518;2023-12-20T02:32:26;6.50;69.00
10057;DHT22;5068;51.286;7.518;2023-12-20T02:34:00;6.50;69.00
10057;DHT22;5068;51.286;7.518;2023-12-20T02:35:34;6.40;68.80
10057;DHT22;5068;51.286;7.518;2023-12-20T02:37:07;6.40;68.80
10057;DHT22;5068;51.286;7.518;2023-12-20T02:38:40;6.50;68.80
10057;DHT22;5068;51.286;7.518;2023-12-20T02:40:14;6.40;68.70
10057;DHT22;5068;51.286;7.518;2023-12-20T02:41:46;6.40;68.80
10057;DHT22;5068;51.286;7.518;2023-12-20T02:43:20;6.40;68.70
10057;DHT22;5068;51.286;7.518;2023-12-20T02:44:52;6.40;68.70
10057;DHT22;5068;51.286;7.518;2023-12-20T02:46:25;6.40;68.70
10057;DHT22;5068;51.286;7.518;2023-12-20T02:47:58;6.40;68.70
10057;DHT22;5068;51.286;7.518;2023-12-20T02:49:31;6.40;68.70
10057;DHT22;5068;51.286;7.518;2023-12-20T02:51:03;6.40;68.70
10057;DHT22;5068;51.286;7.518;2023-12-20T02:52:38;6.40;68.70
10057;DHT22;5068;51.286;7.518;2023-12-20T02:54:10;6.40;68.60
10057;DHT22;5068;51.286;7.518;2023-12-20T02:55:44;6.40;68.60
10057;DHT22;5068;51.286;7.518;2023-12-20T02:57:17;6.40;68.50
10057;DHT22;5068;51.286;7.518;2023-12-20T02:58:50;6.40;68.30
10057;DHT22;5068;51.286;7.518;2023-12-20T03:00:22;6.40;68.20
10057;DHT22;5068;51.286;7.518;2023-12-20T03:01:55;6.30;68.00
10057;DHT22;5068;51.286;7.518;2023-12-20T03:03:28;6.30;68.00
10057;DHT22;5068;51.286;7.518;2023-12-20T03:05:01;6.30;68.00
10057;DHT22;5068;51.286;7.518;2023-12-20T03:06:34;6.30;68.00
10057;DHT22;5068;51.286;7.518;2023-12-20T03:08:09;6.30;68.00
10057;DHT22;5068;51.286;7.518;2023-12-20T03:09:42;6.30;67.90
10057;DHT22;5068;51.286;7.518;2023-12-20T03:11:34;6.30;67.90
10057;DHT22;5068;51.286;7.518;2023-12-20T03:13:07;6.20;67.80
10057;DHT22;5068;51.286;7.518;2023-12-20T03:14:40;6.20;67.70
10057;DHT22;5068;51.286;7.518;2023-12-20T03:16:13;6.20;67.70
10057;DHT22;5068;51.286;7.518;2023-12-20T03:17:48;6.20;67.80
10057;DHT22;5068;51.286;7.518;2023-12-20T03:19:21;6.10;67.80
10057;DHT22;5068;51.286;7.518;2023-12-20T03:20:55;6.10;67.80
10057;DHT22;5068;51.286;7.518;2023-12-20T03:22:27;6.10;67.80
10057;DHT22;5068;51.286;7.518;2023-12-20T03:24:02;6.10;67.90
10057;DHT22;5068;51.286;7.518;2023-12-20T03:25:35;6.10;68.10
10057;DHT22;5068;51.286;7.518;2023-12-20T03:27:08;6.00;68.00
10057;DHT22;5068;51.286;7.518;2023-12-20T03:28:41;6.00;68.10
10057;DHT22;5068;51.286;7.518;2023-12-20T03:30:13;6.00;68.20
10057;DHT22;5068;51.286;7.518;2023-12-20T03:31:47;6.00;68.30
10057;DHT22;5068;51.286;7.518;2023-12-20T03:33:19;6.00;68.20
10057;DHT22;5068;51.286;7.518;2023-12-20T03:34:52;6.00;68.10
10057;DHT22;5068;51.286;7.518;2023-12-20T03:36:25;6.00;68.20
10057;DHT22;5068;51.286;7.518;2023-12-20T03:37:58;5.90;68.10
10057;DHT22;5068;51.286;7.518;2023-12-20T03:39:33;5.90;68.20
10057;DHT22;5068;51.286;7.518;2023-12-20T03:41:07;6.00;68.20
10057;DHT22;5068;51.286;7.518;2023-12-20T03:42:39;5.90;68.20
10057;DHT22;5068;51.286;7.518;2023-12-20T03:44:12;5.90;68.20
10057;DHT22;5068;51.286;7.518;2023-12-20T03:45:45;5.90;68.20
10057;DHT22;5068;51.286;7.518;2023-12-20T03:47:18;5.90;68.20
10057;DHT22;5068;51.286;7.518;2023-12-20T03:48:50;5.90;68.30
10057;DHT22;5068;51.286;7.518;2023-12-20T03:50:24;5.90;68.40
10057;DHT22;5068;51.286;7.518;2023-12-20T03:51:56;5.90;68.30
10057;DHT22;5068;51.286;7.518;2023-12-20T03:53:30;5.90;68.20
10057;DHT22;5068;51.286;7.518;2023-12-20T03:55:04;5.90;68.20
10057;DHT22;5068;51.286;7.518;2023-12-20T03:56:38;5.90;68.20
10057;DHT22;5068;51.286;7.518;2023-12-20T03:58:10;5.90;68.10
10057;DHT22;5068;51.286;7.518;2023-12-20T03:59:43;5.90;68.10
10057;DHT22;5068;51.286;7.518;2023-12-20T04:01:15;5.90;68.00
10057;DHT22;5068;51.286;7.518;2023-12-20T04:02:48;5.90;68.00
10057;DHT22;5068;51.286;7.518;2023-12-20T04:04:21;5.90;67.90
10057;DHT22;5068;51.286;7.518;2023-12-20T04:05:54;5.90;67.90
10057;DHT22;5068;51.286;7.518;2023-12-20T04:07:26;5.90;67.80
10057;DHT22;5068;51.286;7.518;2023-12-20T04:08:59;5.90;67.60
10057;DHT22;5068;51.286;7.518;2023-12-20T04:10:33;5.90;67.50
10057;DHT22;5068;51.286;7.518;2023-12-20T04:12:07;5.90;67.50
10057;DHT22;5068;51.286;7.518;2023-12-20T04:13:39;5.80;67.40
10057;DHT22;5068;51.286;7.518;2023-12-20T04:15:12;5.80;67.40
10057;DHT22;5068;51.286;7.518;2023-12-20T04:16:45;5.90;67.40
10057;DHT22;5068;51.286;7.518;2023-12-20T04:18:18;5.90;67.30
10057;DHT22;5068;51.286;7.518;2023-12-20T04:19:51;5.80;67.30
10057;DHT22;5068;51.286;7.518;2023-12-20T04:21:25;5.90;67.50
10057;DHT22;5068;51.286;7.518;2023-12-20T04:22:57;5.80;67.40
10057;DHT22;5068;51.286;7.518;2023-12-20T04:24:30;5.90;67.40
10057;DHT22;5068;51.286;7.518;2023-12-20T04:26:04;5.90;67.50
10057;DHT22;5068;51.286;7.518;2023-12-20T04:27:37;5.90;67.40
10057;DHT22;5068;51.286;7.518;2023-12-20T04:29:09;5.90;67.20
10057;DHT22;5068;51.286;7.518;2023-12-20T04:30:42;5.90;67.00
10057;DHT22;5068;51.286;7.518;2023-12-20T04:32:15;5.80;66.90
10057;DHT22;5068;51.286;7.518;2023-12-20T04:33:48;5.90;66.90
10057;DHT22;5068;51.286;7.518;2023-12-20T04:35:20;5.90;66.90
10057;DHT22;5068;51.286;7.518;2023-12-20T04:36:54;5.80;66.80
10057;DHT22;5068;51.286;7.518;2023-12-20T04:38:27;5.80;66.90
10057;DHT22;5068;51.286;7.518;2023-12-20T04:40:00;5.80;66.90
10057;DHT22;5068;51.286;7.518;2023-12-20T04:41:35;5.80;66.90
10057;DHT22;5068;51.286;7.518;2023-12-20T04:43:08;5.90;67.00
10057;DHT22;5068;51.286;7.518;2023-12-20T04:44:41;5.80;67.00
10057;DHT22;5068;51.286;7.518;2023-12-20T04:46:15;5.80;67.20
10057;DHT22;5068;51.286;7.518;2023-12-20T04:47:47;5.90;67.40
10057;DHT22;5068;51.286;7.518;2023-12-20T04:49:21;5.80;67.30
10057;DHT22;5068;51.286;7.518;2023-12-20T04:50:53;5.80;67.20
10057;DHT22;5068;51.286;7.518;2023-12-20T04:52:26;5.90;67.20
10057;DHT22;5068;51.286;7.518;2023-12-20T04:53:58;5.80;67.10
10057;DHT22;5068;51.286;7.518;2023-12-20T04:55:31;5.80;67.10
10057;DHT22;5068;51.286;7.518;2023-12-20T04:57:05;5.80;67.10
10057;DHT22;5068;51.286;7.518;2023-12-20T04:58:38;5.80;67.10
10057;DHT22;5068;51.286;7.518;2023-12-20T05:00:12;5.80;67.00
10057;DHT22;5068;51.286;7.518;2023-12-20T05:01:47;5.80;67.50
10057;DHT22;5068;51.286;7.518;2023-12-20T05:03:19;5.80;67.00
10057;DHT22;5068;51.286;7.518;2023-12-20T05:04:52;5.80;66.90
10057;DHT22;5068;51.286;7.518;2023-12-20T05:06:27;5.80;67.00
10057;DHT22;5068;51.286;7.518;2023-12-20T05:08:00;5.80;67.10
10057;DHT22;5068;51.286;7.518;2023-12-20T05:09:33;5.80;67.10
10057;DHT22;5068;51.286;7.518;2023-12-20T05:11:06;5.80;67.10
10057;DHT22;5068;51.286;7.518;2023-12-20T05:12:40;5.80;67.20
10057;DHT22;5068;51.286;7.518;2023-12-20T05:14:13;5.80;67.20
10057;DHT22;5068;51.286;7.518;2023-12-20T05:15:45;5.80;67.20
10057;DHT22;5068;51.286;7.518;2023-12-20T05:17:18;5.80;67.30
10057;DHT22;5068;51.286;7.518;2023-12-20T05:18:52;5.80;67.30
10057;DHT22;5068;51.286;7.518;2023-12-20T05:20:25;5.80;67.30
10057;DHT22;5068;51.286;7.518;2023-12-20T05:21:59;5.80;67.40
10057;DHT22;5068;51.286;7.518;2023-12-20T05:23:31;5.80;67.40
10057;DHT22;5068;51.286;7.518;2023-12-20T05:25:05;5.80;67.40
10057;DHT22;5068;51.286;7.518;2023-12-20T05:26:39;5.80;67.50
10057;DHT22;5068;51.286;7.518;2023-12-20T05:28:12;5.80;67.40
10057;DHT22;5068;51.286;7.518;2023-12-20T05:29:45;5.80;67.40
10057;DHT22;5068;51.286;7.518;2023-12-20T05:31:18;5.80;67.10
10057;DHT22;5068;51.286;7.518;2023-12-20T05:32:51;5.80;67.00
10057;DHT22;5068;51.286;7.518;2023-12-20T05:34:24;5.80;66.90
10057;DHT22;5068;51.286;7.518;2023-12-20T05:35:57;5.80;66.90
10057;DHT22;5068;51.286;7.518;2023-12-20T05:37:30;5.80;66.70
10057;DHT22;5068;51.286;7.518;2023-12-20T05:39:03;5.80;66.70
10057;DHT22;5068;51.286;7.518;2023-12-20T05:40:36;5.80;66.80
10057;DHT22;5068;51.286;7.518;2023-12-20T05:42:09;5.80;66.90
10057;DHT22;5068;51.286;7.518;2023-12-20T05:43:43;5.80;66.90
10057;DHT22;5068;51.286;7.518;2023-12-20T05:45:15;5.80;66.80
10057;DHT22;5068;51.286;7.518;2023-12-20T05:46:49;5.80;66.80
10057;DHT22;5068;51.286;7.518;2023-12-20T05:48:21;5.80;66.70
10057;DHT22;5068;51.286;7.518;2023-12-20T05:49:54;5.80;66.70
10057;DHT22;5068;51.286;7.518;2023-12-20T05:51:26;5.80;66.70
10057;DHT22;5068;51.286;7.518;2023-12-20T05:52:59;5.80;66.70
10057;DHT22;5068;51.286;7.518;2023-12-20T05:54:32;5.80;66.50
10057;DHT22;5068;51.286;7.518;2023-12-20T05:56:06;5.80;66.60
10057;DHT22;5068;51.286;7.518;2023-12-20T05:57:38;5.80;66.80
10057;DHT22;5068;51.286;7.518;2023-12-20T05:59:13;5.80;66.70
10057;DHT22;5068;51.286;7.518;2023-12-20T06:00:46;5.80;66.70
10057;DHT22;5068;51.286;7.518;2023-12-20T06:02:21;5.80;66.70
10057;DHT22;5068;51.286;7.518;2023-12-20T06:03:53;5.80;66.70
10057;DHT22;5068;51.286;7.518;2023-12-20T06:05:26;5.80;66.50
10057;DHT22;5068;51.286;7.518;2023-12-20T06:06:59;5.80;66.50
10057;DHT22;5068;51.286;7.518;2023-12-20T06:08:32;5.80;66.50
10057;DHT22;5068;51.286;7.518;2023-12-20T06:10:05;5.80;66.40
10057;DHT22;5068;51.286;7.518;2023-12-20T06:11:39;5.80;66.60
10057;DHT22;5068;51.286;7.518;2023-12-20T06:13:11;5.80;66.70
10057;DHT22;5068;51.286;7.518;2023-12-20T06:14:47;5.80;66.70
10057;DHT22;5068;51.286;7.518;2023-12-20T06:16:19;5.70;66.70
10057;DHT22;5068;51.286;7.518;2023-12-20T06:17:52;5.70;66.70
10057;DHT22;5068;51.286;7.518;2023-12-20T06:19:25;5.70;67.30
10057;DHT22;5068;51.286;7.518;2023-12-20T06:20:58;5.80;66.90
10057;DHT22;5068;51.286;7.518;2023-12-20T06:22:30;5.70;66.70
10057;DHT22;5068;51.286;7.518;2023-12-20T06:24:04;5.80;66.70
10057;DHT22;5068;51.286;7.518;2023-12-20T06:25:36;5.80;66.80
10057;DHT22;5068;51.286;7.518;2023-12-20T06:27:10;5.70;66.40
10057;DHT22;5068;51.286;7.518;2023-12-20T06:28:42;5.80;66.60
10057;DHT22;5068;51.286;7.518;2023-12-20T06:30:17;5.70;66.40
10057;DHT22;5068;51.286;7.518;2023-12-20T06:31:49;5.80;66.40
10057;DHT22;5068;51.286;7.518;2023-12-20T06:33:22;5.80;66.40
10057;DHT22;5068;51.286;7.518;2023-12-20T06:35:09;5.70;66.30
10057;DHT22;5068;51.286;7.518;2023-12-20T06:36:41;5.70;66.20
10057;DHT22;5068;51.286;7.518;2023-12-20T06:38:14;5.70;66.30
10057;DHT22;5068;51.286;7.518;2023-12-20T06:39:47;5.70;66.30
10057;DHT22;5068;51.286;7.518;2023-12-20T06:41:20;5.70;66.20
10057;DHT22;5068;51.286;7.518;2023-12-20T06:42:53;5.70;66.20
10057;DHT22;5068;51.286;7.518;2023-12-20T06:44:39;5.70;66.30
10057;DHT22;5068;51.286;7.518;2023-12-20T06:46:14;5.70;66.30
10057;DHT22;5068;51.286;7.518;2023-12-20T06:47:46;5.70;66.30
10057;DHT22;5068;51.286;7.518;2023-12-20T06:49:20;5.70;66.40
10057;DHT22;5068;51.286;7.518;2023-12-20T06:50:52;5.70;66.50
10057;DHT22;5068;51.286;7.518;2023-12-20T06:52:25;5.70;66.60
10057;DHT22;5068;51.286;7.518;2023-12-20T06:53:58;5.70;66.70
10057;DHT22;5068;51.286;7.518;2023-12-20T06:55:31;5.70;66.80
10057;DHT22;5068;51.286;7.518;2023-12-20T06:57:04;5.70;66.80
10057;DHT22;5068;51.286;7.518;2023-12-20T06:58:37;5.70;66.80
10057;DHT22;5068;51.286;7.518;2023-12-20T07:00:11;5.70;66.80
10057;DHT22;5068;51.286;7.518;2023-12-20T07:01:49;5.70;66.80
10057;DHT22;5068;51.286;7.518;2023-12-20T07:03:22;5.70;66.70
10057;DHT22;5068;51.286;7.518;2023-12-20T07:04:55;5.70;66.70
10057;DHT22;5068;51.286;7.518;2023-12-20T07:06:29;5.70;66.60
10057;DHT22;5068;51.286;7.518;2023-12-20T07:08:03;5.70;66.60
10057;DHT22;5068;51.286;7.518;2023-12-20T07:09:36;5.70;66.50
10057;DHT22;5068;51.286;7.518;2023-12-20T07:11:10;5.80;66.60
10057;DHT22;5068;51.286;7.518;2023-12-20T07:12:42;5.70;66.40
10057;DHT22;5068;51.286;7.518;2023-12-20T07:14:15;5.70;66.40
10057;DHT22;5068;51.286;7.518;2023-12-20T07:15:48;5.70;66.40
10057;DHT22;5068;51.286;7.518;2023-12-20T07:17:23;5.70;66.50
10057;DHT22;5068;51.286;7.518;2023-12-20T07:18:55;5.70;66.50
10057;DHT22;5068;51.286;7.518;2023-12-20T07:20:29;5.70;66.50
10057;DHT22;5068;51.286;7.518;2023-12-20T07:22:02;5.70;66.50
10057;DHT22;5068;51.286;7.518;2023-12-20T07:23:36;5.70;66.60
10057;DHT22;5068;51.286;7.518;2023-12-20T07:25:08;5.70;66.60
10057;DHT22;5068;51.286;7.518;2023-12-20T07:26:42;5.70;66.70
10057;DHT22;5068;51.286;7.518;2023-12-20T07:28:14;5.70;66.70
10057;DHT22;5068;51.286;7.518;2023-12-20T07:29:48;5.70;66.90
10057;DHT22;5068;51.286;7.518;2023-12-20T07:31:20;5.70;66.90
10057;DHT22;5068;51.286;7.518;2023-12-20T07:32:55;5.60;66.80
10057;DHT22;5068;51.286;7.518;2023-12-20T07:34:27;5.60;66.70
10057;DHT22;5068;51.286;7.518;2023-12-20T07:36:00;5.60;66.70
10057;DHT22;5068;51.286;7.518;2023-12-20T07:37:33;5.70;66.80
10057;DHT22;5068;51.286;7.518;2023-12-20T07:39:06;5.70;66.70
10057;DHT22;5068;51.286;7.518;2023-12-20T07:40:38;5.70;66.70
10057;DHT22;5068;51.286;7.518;2023-12-20T07:42:12;5.70;66.60
10057;DHT22;5068;51.286;7.518;2023-12-20T07:43:44;5.70;66.60
10057;DHT22;5068;51.286;7.518;2023-12-20T07:45:17;5.80;66.50
10057;DHT22;5068;51.286;7.518;2023-12-20T07:46:50;5.70;66.30
10057;DHT22;5068;51.286;7.518;2023-12-20T07:48:24;5.70;66.30
10057;DHT22;5068;51.286;7.518;2023-12-20T07:49:57;5.70;66.30
10057;DHT22;5068;51.286;7.518;2023-12-20T07:51:29;5.70;66.20
10057;DHT22;5068;51.286;7.518;2023-12-20T07:53:03;5.70;66.20
10057;DHT22;5068;51.286;7.518;2023-12-20T07:54:35;5.70;66.20
10057;DHT22;5068;51.286;7.518;2023-12-20T07:56:15;5.70;66.20
10057;DHT22;5068;51.286;7.518;2023-12-20T07:57:48;5.70;66.00
10057;DHT22;5068;51.286;7.518;2023-12-20T07:59:21;5.70;66.00
10057;DHT22;5068;51.286;7.518;2023-12-20T08:01:03;5.70;66.00
10057;DHT22;5068;51.286;7.518;2023-12-20T08:02:36;5.70;65.90
10057;DHT22;5068;51.286;7.518;2023-12-20T08:04:11;5.60;65.90
10057;DHT22;5068;51.286;7.518;2023-12-20T08:05:44;5.70;65.90
10057;DHT22;5068;51.286;7.518;2023-12-20T08:07:16;5.70;66.10
10057;DHT22;5068;51.286;7.518;2023-12-20T08:08:50;5.70;66.00
10057;DHT22;5068;51.286;7.518;2023-12-20T08:10:33;5.70;66.00
10057;DHT22;5068;51.286;7.518;2023-12-20T08:12:06;5.70;66.80
10057;DHT22;5068;51.286;7.518;2023-12-20T08:13:41;5.70;66.00
10057;DHT22;5068;51.286;7.518;2023-12-20T08:15:13;5.70;65.80
10057;DHT22;5068;51.286;7.518;2023-12-20T08:16:47;5.70;65.90
10057;DHT22;5068;51.286;7.518;2023-12-20T08:18:19;5.70;66.00
10057;DHT22;5068;51.286;7.518;2023-12-20T08:19:53;5.70;66.00
10057;DHT22;5068;51.286;7.518;2023-12-20T08:21:26;5.70;66.10
10057;DHT22;5068;51.286;7.518;2023-12-20T08:22:59;5.70;66.20
10057;DHT22;5068;51.286;7.518;2023-12-20T08:24:32;5.60;66.20
10057;DHT22;5068;51.286;7.518;2023-12-20T08:26:06;5.70;66.20
10057;DHT22;5068;51.286;7.518;2023-12-20T08:27:39;5.70;66.30
10057;DHT22;5068;51.286;7.518;2023-12-20T08:29:13;5.70;66.30
10057;DHT22;5068;51.286;7.518;2023-12-20T08:30:46;5.70;66.20
10057;DHT22;5068;51.286;7.518;2023-12-20T08:32:19;5.70;66.30
10057;DHT22;5068;51.286;7.518;2023-12-20T08:33:51;5.70;66.20
10057;DHT22;5068;51.286;7.518;2023-12-20T08:35:27;5.70;66.80
10057;DHT22;5068;51.286;7.518;2023-12-20T08:36:59;5.70;66.20
10057;DHT22;5068;51.286;7.518;2023-12-20T08:38:34;5.70;66.30
10057;DHT22;5068;51.286;7.518;2023-12-20T08:40:07;5.70;66.20
10057;DHT22;5068;51.286;7.518;2023-12-20T08:41:41;5.70;66.20
10057;DHT22;5068;51.286;7.518;2023-12-20T08:43:13;5.70;66.20
10057;DHT22;5068;51.286;7.518;2023-12-20T08:44:47;5.70;66.20
10057;DHT22;5068;51.286;7.518;2023-12-20T08:46:19;5.70;66.30
10057;DHT22;5068;51.286;7.518;2023-12-20T08:47:52;5.70;66.20
10057;DHT22;5068;51.286;7.518;2023-12-20T08:49:26;5.70;66.20
10057;DHT22;5068;51.286;7.518;2023-12-20T08:51:01;5.70;66.30
10057;DHT22;5068;51.286;7.518;2023-12-20T08:52:34;5.70;66.30
10057;DHT22;5068;51.286;7.518;2023-12-20T08:54:08;5.70;66.20
10057;DHT22;5068;51.286;7.518;2023-12-20T08:55:40;5.70;66.20
10057;DHT22;5068;51.286;7.518;2023-12-20T08:57:13;5.70;66.20
10057;DHT22;5068;51.286;7.518;2023-12-20T08:58:46;5.70;66.20
10057;DHT22;5068;51.286;7.518;2023-12-20T09:00:19;5.70;66.20
10057;DHT22;5068;51.286;7.518;2023-12-20T09:01:56;5.70;66.30
10057;DHT22;5068;51.286;7.518;2023-12-20T09:03:28;5.70;66.20
10057;DHT22;5068;51.286;7.518;2023-12-20T09:05:01;5.70;66.20
10057;DHT22;5068;51.286;7.518;2023-12-20T09:06:36;5.70;66.40
10057;DHT22;5068;51.286;7.518;2023-12-20T09:08:10;5.70;66.20
10057;DHT22;5068;51.286;7.518;2023-12-20T09:09:42;5.70;66.20
10057;DHT22;5068;51.286;7.518;2023-12-20T09:11:15;5.70;66.20
10057;DHT22;5068;51.286;7.518;2023-12-20T09:12:50;5.70;66.20
10057;DHT22;5068;51.286;7.518;2023-12-20T09:14:23;5.70;66.20
10057;DHT22;5068;51.286;7.518;2023-12-20T09:15:57;5.80;66.30
10057;DHT22;5068;51.286;7.518;2023-12-20T09:17:31;5.80;66.30
10057;DHT22;5068;51.286;7.518;2023-12-20T09:19:06;5.70;66.10
10057;DHT22;5068;51.286;7.518;2023-12-20T09:20:39;5.70;66.10
10057;DHT22;5068;51.286;7.518;2023-12-20T09:22:16;5.80;66.20
10057;DHT22;5068;51.286;7.518;2023-12-20T09:23:50;5.80;66.20
10057;DHT22;5068;51.286;7.518;2023-12-20T09:25:23;5.80;66.20
10057;DHT22;5068;51.286;7.518;2023-12-20T09:26:56;5.80;66.80
10057;DHT22;5068;51.286;7.518;2023-12-20T09:28:29;5.80;66.00
10057;DHT22;5068;51.286;7.518;2023-12-20T09:30:03;5.80;66.00
10057;DHT22;5068;51.286;7.518;2023-12-20T09:31:38;5.80;66.00
10057;DHT22;5068;51.286;7.518;2023-12-20T09:33:10;5.80;66.00
10057;DHT22;5068;51.286;7.518;2023-12-20T09:34:44;5.80;66.00
10057;DHT22;5068;51.286;7.518;2023-12-20T09:36:16;5.80;66.00
10057;DHT22;5068;51.286;7.518;2023-12-20T09:37:51;5.80;66.00
10057;DHT22;5068;51.286;7.518;2023-12-20T09:39:23;5.80;66.00
10057;DHT22;5068;51.286;7.518;2023-12-20T09:40:56;5.80;66.10
10057;DHT22;5068;51.286;7.518;2023-12-20T09:42:33;5.80;66.10
10057;DHT22;5068;51.286;7.518;2023-12-20T09:44:15;5.80;66.30
10057;DHT22;5068;51.286;7.518;2023-12-20T09:45:53;5.90;66.50
10057;DHT22;5068;51.286;7.518;2023-12-20T09:47:26;5.90;67.30
10057;DHT22;5068;51.286;7.518;2023-12-20T09:49:00;5.90;66.20
10057;DHT22;5068;51.286;7.518;2023-12-20T09:50:34;5.90;66.10
10057;DHT22;5068;51.286;7.518;2023-12-20T09:52:07;5.90;66.00
10057;DHT22;5068;51.286;7.518;2023-12-20T09:53:46;5.90;66.00
10057;DHT22;5068;51.286;7.518;2023-12-20T09:55:21;5.90;65.90
10057;DHT22;5068;51.286;7.518;2023-12-20T09:56:56;5.90;66.00
10057;DHT22;5068;51.286;7.518;2023-12-20T09:58:28;5.90;65.90
10057;DHT22;5068;51.286;7.518;2023-12-20T10:00:02;5.90;65.90
10057;DHT22;5068;51.286;7.518;2023-12-20T10:01:43;6.00;66.00
10057;DHT22;5068;51.286;7.518;2023-12-20T10:03:17;6.00;66.10
10057;DHT22;5068;51.286;7.518;2023-12-20T10:04:55;5.90;65.90
10057;DHT22;5068;51.286;7.518;2023-12-20T10:06:28;6.00;65.90
10057;DHT22;5068;51.286;7.518;2023-12-20T10:08:01;6.00;65.80
10057;DHT22;5068;51.286;7.518;2023-12-20T10:09:37;5.90;65.70
10057;DHT22;5068;51.286;7.518;2023-12-20T10:11:10;6.00;65.80